createdAt,value
2018-06-20T18:19:25.646Z,9.20
2018-06-20T18:22:38.892Z,9.17
2018-06-20T18:25:08.039Z,8.73
2018-06-20T18:27:37.141Z,8.43
2018-06-20T18:30:06.456Z,7.97
2018-06-20T18:32:35.587Z,8.80
2018-06-20T18:35:04.762Z,8.47
2018-06-20T18:37:33.948Z,7.83
2018-06-20T18:40:05.771Z,8.20
2018-06-20T18:42:35.289Z,7.23
2018-06-20T18:45:04.697Z,8.23
2018-06-20T18:47:39.144Z,7.67
2018-06-20T18:50:08.820Z,7.97
2018-06-20T18:52:38.108Z,8.17
2018-06-20T18:55:07.256Z,8.00
2018-06-20T18:57:42.526Z,7.83
2018-06-20T19:00:17.016Z,8.50
2018-06-20T19:02:51.514Z,8.40
2018-06-20T19:05:25.960Z,8.37
2018-06-20T19:08:00.591Z,8.83
2018-06-20T19:10:29.747Z,9.47
2018-06-20T19:12:58.912Z,9.43
2018-06-20T19:15:28.030Z,9.77
2018-06-20T19:17:57.153Z,9.73
2018-06-20T19:20:26.397Z,9.90
2018-06-20T19:22:55.543Z,10.57
2018-06-20T19:25:24.781Z,10.70
2018-06-20T19:27:53.891Z,10.90
2018-06-20T19:30:23.163Z,10.90
2018-06-20T19:32:52.488Z,10.13
2018-06-20T19:35:21.558Z,10.77
2018-06-20T19:37:50.751Z,10.57
2018-06-20T19:40:19.900Z,10.50
2018-06-20T19:42:49.041Z,10.23
2018-06-20T19:45:18.207Z,10.27
2018-06-20T19:47:47.331Z,10.37
2018-06-20T19:50:16.457Z,10.10
2018-06-20T19:52:45.551Z,11.07
2018-06-20T19:55:14.736Z,11.13
2018-06-20T19:57:43.858Z,10.87
2018-06-20T20:00:12.964Z,10.83
2018-06-20T20:02:42.199Z,9.97
2018-06-20T20:05:11.282Z,10.53
2018-06-20T20:07:41.202Z,10.70
2018-06-20T20:10:10.365Z,10.50
2018-06-20T20:12:39.519Z,10.80
2018-06-20T20:15:08.629Z,11.27
2018-06-20T20:17:37.777Z,11.33
2018-06-20T20:20:07.550Z,11.70
2018-06-20T20:22:36.654Z,11.23
2018-06-20T20:25:05.978Z,11.20
2018-06-20T20:27:35.097Z,11.80
2018-06-20T20:30:04.498Z,11.67
2018-06-20T20:32:33.696Z,10.33
2018-06-20T20:35:02.801Z,11.37
2018-06-20T20:37:32.052Z,11.67
2018-06-20T20:40:01.129Z,11.53
2018-06-20T20:42:30.731Z,11.47
2018-06-20T20:44:59.839Z,11.23
2018-06-20T20:47:29.026Z,12.07
2018-06-20T20:49:58.119Z,12.60
2018-06-20T20:52:27.224Z,12.33
2018-06-20T20:54:56.500Z,12.03
2018-06-20T20:57:25.353Z,11.67
2018-06-20T20:59:54.356Z,12.00
2018-06-20T21:02:23.476Z,11.77
2018-06-20T21:04:52.663Z,11.60
2018-06-20T21:07:21.849Z,11.67
2018-06-20T21:09:51.036Z,11.57
2018-06-20T21:12:20.206Z,11.90
2018-06-20T21:14:49.352Z,11.63
2018-06-20T21:17:18.240Z,12.17
2018-06-20T21:19:47.302Z,11.70
2018-06-20T21:22:18.299Z,11.67
2018-06-20T21:24:47.484Z,11.60
2018-06-20T21:27:16.662Z,11.83
2018-06-20T21:29:45.823Z,11.90
2018-06-20T21:32:15.062Z,12.27
2018-06-20T21:34:44.376Z,13.40
2018-06-20T21:37:13.506Z,12.93
2018-06-20T21:39:44.123Z,12.03
2018-06-20T21:42:13.275Z,11.87
2018-06-20T21:44:42.392Z,12.40
2018-06-20T21:47:11.516Z,12.40
2018-06-20T21:49:40.711Z,12.10
2018-06-20T21:52:09.840Z,13.00
2018-06-20T21:54:38.964Z,11.90
2018-06-20T21:57:08.107Z,10.63
2018-06-20T21:59:36.912Z,9.70
2018-06-20T22:02:06.647Z,8.60
2018-06-20T22:04:35.439Z,8.20
2018-06-20T22:07:04.483Z,8.40
2018-06-20T22:09:33.787Z,8.23
2018-06-20T22:12:02.772Z,7.97
2018-06-20T22:14:31.888Z,9.27
2018-06-20T22:17:01.064Z,8.70
2018-06-20T22:19:30.176Z,10.30
2018-06-20T22:21:59.289Z,10.87
2018-06-20T22:24:28.508Z,11.07
2018-06-20T22:26:57.634Z,11.70
2018-06-20T22:29:27.308Z,12.03
2018-06-20T22:32:04.261Z,13.07
2018-06-20T22:34:33.421Z,13.60
2018-06-20T22:37:02.569Z,14.20
2018-06-20T22:39:31.691Z,13.93
2018-06-20T22:42:00.833Z,14.13
2018-06-20T22:44:30.103Z,14.33
2018-06-20T22:46:59.317Z,14.77
2018-06-20T22:49:28.461Z,14.70
2018-06-20T22:51:58.149Z,15.47
2018-06-20T22:54:27.308Z,15.33
2018-06-20T22:56:56.496Z,16.67
2018-06-20T22:59:25.699Z,16.10
2018-06-20T23:01:55.416Z,14.90
2018-06-20T23:04:24.562Z,16.00
2018-06-20T23:06:53.717Z,16.47
2018-06-20T23:09:22.896Z,16.10
2018-06-20T23:11:52.105Z,15.97
2018-06-20T23:14:21.344Z,16.23
2018-06-20T23:16:50.490Z,16.67
2018-06-20T23:19:19.595Z,16.10
2018-06-20T23:21:48.773Z,16.23
2018-06-20T23:24:17.984Z,14.30
2018-06-20T23:26:47.147Z,13.77
2018-06-20T23:29:16.417Z,12.33
2018-06-20T23:31:45.613Z,12.40
2018-06-20T23:34:14.870Z,12.20
2018-06-20T23:36:44.020Z,12.43
2018-06-20T23:39:13.273Z,12.10
2018-06-20T23:41:42.440Z,12.97
2018-06-20T23:44:11.620Z,13.53
2018-06-20T23:46:40.755Z,14.13
2018-06-20T23:49:09.880Z,14.60
2018-06-20T23:51:41.760Z,14.70
2018-06-20T23:54:10.916Z,15.30
2018-06-20T23:56:40.050Z,15.77
2018-06-20T23:59:09.212Z,15.73
